sensor_id;sensor_type;location;lat;lon;timestamp;P1;durP1;ratioP1;P2;durP2;ratioP2
15878;SDS011;61999;51.514;14.614;2023-08-31T00:00:01;2.83;;;2.17;;
15878;SDS011;61999;51.514;14.614;2023-08-31T00:02:31;3.23;;;2.30;;
15878;SDS011;61999;51.514;14.614;2023-08-31T00:04:59;2.57;;;2.37;;
15878;SDS011;61999;51.514;14.614;2023-08-31T00:07:27;2.30;;;2.17;;
15878;SDS011;61999;51.514;14.614;2023-08-31T00:09:56;2.70;;;2.50;;
15878;SDS011;61999;51.514;14.614;2023-08-31T00:12:24;2.40;;;2.30;;
15878;SDS011;61999;51.514;14.614;2023-08-31T00:14:53;2.33;;;2.13;;
15878;SDS011;61999;51.514;14.614;2023-08-31T00:17:22;2.50;;;2.30;;
15878;SDS011;61999;51.514;14.614;2023-08-31T00:19:50;2.37;;;2.27;;
15878;SDS011;61999;51.514;14.614;2023-08-31T00:22:18;2.33;;;2.20;;
15878;SDS011;61999;51.514;14.614;2023-08-31T00:24:46;2.50;;;2.30;;
15878;SDS011;61999;51.514;14.614;2023-08-31T00:27:14;2.90;;;2.27;;
15878;SDS011;61999;51.514;14.614;2023-08-31T00:29:43;2.57;;;2.37;;
15878;SDS011;61999;51.514;14.614;2023-08-31T00:32:15;2.57;;;2.37;;
15878;SDS011;61999;51.514;14.614;2023-08-31T00:34:45;2.87;;;2.67;;
15878;SDS011;61999;51.514;14.614;2023-08-31T00:37:13;2.87;;;2.30;;
15878;SDS011;61999;51.514;14.614;2023-08-31T00:39:41;2.67;;;2.47;;
15878;SDS011;61999;51.514;14.614;2023-08-31T00:42:09;2.20;;;2.00;;
15878;SDS011;61999;51.514;14.614;2023-08-31T00:44:37;2.33;;;2.00;;
15878;SDS011;61999;51.514;14.614;2023-08-31T00:47:05;2.30;;;2.20;;
15878;SDS011;61999;51.514;14.614;2023-08-31T00:49:34;2.23;;;2.13;;
15878;SDS011;61999;51.514;14.614;2023-08-31T00:52:03;2.57;;;2.33;;
15878;SDS011;61999;51.514;14.614;2023-08-31T00:54:32;2.40;;;2.30;;
15878;SDS011;61999;51.514;14.614;2023-08-31T00:57:00;2.30;;;2.10;;
15878;SDS011;61999;51.514;14.614;2023-08-31T00:59:29;2.50;;;2.30;;
15878;SDS011;61999;51.514;14.614;2023-08-31T01:02:00;2.60;;;2.40;;
15878;SDS011;61999;51.514;14.614;2023-08-31T01:04:38;2.20;;;2.10;;
15878;SDS011;61999;51.514;14.614;2023-08-31T01:07:23;4.63;;;2.60;;
15878;SDS011;61999;51.514;14.614;2023-08-31T01:10:02;3.10;;;2.90;;
15878;SDS011;61999;51.514;14.614;2023-08-31T01:12:43;3.70;;;2.70;;
15878;SDS011;61999;51.514;14.614;2023-08-31T01:15:18;4.80;;;3.60;;
15878;SDS011;61999;51.514;14.614;2023-08-31T01:17:48;4.90;;;3.57;;
15878;SDS011;61999;51.514;14.614;2023-08-31T01:20:24;3.53;;;3.23;;
15878;SDS011;61999;51.514;14.614;2023-08-31T01:23:04;3.73;;;3.43;;
15878;SDS011;61999;51.514;14.614;2023-08-31T01:25:39;4.10;;;3.80;;
15878;SDS011;61999;51.514;14.614;2023-08-31T01:28:09;4.00;;;3.70;;
15878;SDS011;61999;51.514;14.614;2023-08-31T01:30:39;3.93;;;3.53;;
15878;SDS011;61999;51.514;14.614;2023-08-31T01:33:07;5.07;;;4.67;;
15878;SDS011;61999;51.514;14.614;2023-08-31T01:35:37;4.60;;;4.20;;
15878;SDS011;61999;51.514;14.614;2023-08-31T01:38:12;4.57;;;4.17;;
15878;SDS011;61999;51.514;14.614;2023-08-31T01:40:49;4.50;;;4.10;;
15878;SDS011;61999;51.514;14.614;2023-08-31T01:43:25;4.87;;;4.03;;
15878;SDS011;61999;51.514;14.614;2023-08-31T01:45:54;4.70;;;3.60;;
15878;SDS011;61999;51.514;14.614;2023-08-31T01:48:24;4.80;;;4.40;;
15878;SDS011;61999;51.514;14.614;2023-08-31T01:50:53;4.37;;;3.97;;
15878;SDS011;61999;51.514;14.614;2023-08-31T01:53:21;4.50;;;4.13;;
15878;SDS011;61999;51.514;14.614;2023-08-31T01:55:50;4.27;;;3.90;;
15878;SDS011;61999;51.514;14.614;2023-08-31T01:58:18;3.90;;;3.50;;
15878;SDS011;61999;51.514;14.614;2023-08-31T02:00:46;4.50;;;4.10;;
15878;SDS011;61999;51.514;14.614;2023-08-31T02:03:14;4.23;;;3.90;;
15878;SDS011;61999;51.514;14.614;2023-08-31T02:05:42;5.07;;;3.60;;
15878;SDS011;61999;51.514;14.614;2023-08-31T02:08:10;3.93;;;3.63;;
15878;SDS011;61999;51.514;14.614;2023-08-31T02:10:38;4.23;;;3.93;;
15878;SDS011;61999;51.514;14.614;2023-08-31T02:13:13;5.00;;;4.60;;
15878;SDS011;61999;51.514;14.614;2023-08-31T02:15:42;4.30;;;4.00;;
15878;SDS011;61999;51.514;14.614;2023-08-31T02:18:10;4.40;;;4.00;;
15878;SDS011;61999;51.514;14.614;2023-08-31T02:20:38;4.00;;;3.70;;
15878;SDS011;61999;51.514;14.614;2023-08-31T02:23:06;4.03;;;3.73;;
15878;SDS011;61999;51.514;14.614;2023-08-31T02:25:35;4.17;;;3.87;;
15878;SDS011;61999;51.514;14.614;2023-08-31T02:28:04;5.30;;;4.23;;
15878;SDS011;61999;51.514;14.614;2023-08-31T02:30:33;3.97;;;3.67;;
15878;SDS011;61999;51.514;14.614;2023-08-31T02:33:01;4.20;;;3.90;;
15878;SDS011;61999;51.514;14.614;2023-08-31T02:35:30;5.03;;;3.83;;
15878;SDS011;61999;51.514;14.614;2023-08-31T02:37:58;4.30;;;4.00;;
15878;SDS011;61999;51.514;14.614;2023-08-31T02:40:26;4.00;;;3.70;;
15878;SDS011;61999;51.514;14.614;2023-08-31T02:42:54;4.40;;;4.10;;
15878;SDS011;61999;51.514;14.614;2023-08-31T02:45:22;5.17;;;4.67;;
15878;SDS011;61999;51.514;14.614;2023-08-31T02:47:52;4.40;;;4.00;;
15878;SDS011;61999;51.514;14.614;2023-08-31T02:50:21;4.03;;;3.73;;
15878;SDS011;61999;51.514;14.614;2023-08-31T02:52:49;4.40;;;4.03;;
15878;SDS011;61999;51.514;14.614;2023-08-31T02:55:17;4.30;;;3.90;;
15878;SDS011;61999;51.514;14.614;2023-08-31T02:57:45;4.20;;;3.90;;
15878;SDS011;61999;51.514;14.614;2023-08-31T03:00:14;4.60;;;4.20;;
15878;SDS011;61999;51.514;14.614;2023-08-31T03:02:42;6.17;;;4.43;;
15878;SDS011;61999;51.514;14.614;2023-08-31T03:05:12;4.47;;;4.07;;
15878;SDS011;61999;51.514;14.614;2023-08-31T03:07:40;4.70;;;4.20;;
15878;SDS011;61999;51.514;14.614;2023-08-31T03:10:08;4.27;;;3.87;;
15878;SDS011;61999;51.514;14.614;2023-08-31T03:12:38;4.33;;;3.97;;
15878;SDS011;61999;51.514;14.614;2023-08-31T03:15:07;4.20;;;3.80;;
15878;SDS011;61999;51.514;14.614;2023-08-31T03:17:35;4.80;;;4.10;;
15878;SDS011;61999;51.514;14.614;2023-08-31T03:20:04;4.13;;;3.73;;
15878;SDS011;61999;51.514;14.614;2023-08-31T03:22:36;4.30;;;3.90;;
15878;SDS011;61999;51.514;14.614;2023-08-31T03:25:04;4.13;;;3.83;;
15878;SDS011;61999;51.514;14.614;2023-08-31T03:27:33;3.67;;;3.37;;
15878;SDS011;61999;51.514;14.614;2023-08-31T03:30:02;3.80;;;3.50;;
15878;SDS011;61999;51.514;14.614;2023-08-31T03:32:30;4.17;;;3.87;;
15878;SDS011;61999;51.514;14.614;2023-08-31T03:34:58;3.57;;;3.27;;
15878;SDS011;61999;51.514;14.614;2023-08-31T03:37:29;3.93;;;3.40;;
15878;SDS011;61999;51.514;14.614;2023-08-31T03:39:58;4.23;;;3.17;;
15878;SDS011;61999;51.514;14.614;2023-08-31T03:42:26;3.27;;;2.93;;
15878;SDS011;61999;51.514;14.614;2023-08-31T03:44:54;2.73;;;2.43;;
15878;SDS011;61999;51.514;14.614;2023-08-31T03:47:22;2.63;;;2.43;;
15878;SDS011;61999;51.514;14.614;2023-08-31T03:49:50;2.90;;;2.70;;
15878;SDS011;61999;51.514;14.614;2023-08-31T03:52:18;2.80;;;2.37;;
15878;SDS011;61999;51.514;14.614;2023-08-31T03:54:47;2.03;;;1.83;;
15878;SDS011;61999;51.514;14.614;2023-08-31T03:57:16;1.70;;;1.57;;
15878;SDS011;61999;51.514;14.614;2023-08-31T03:59:44;2.77;;;2.20;;
15878;SDS011;61999;51.514;14.614;2023-08-31T04:02:12;2.43;;;2.00;;
15878;SDS011;61999;51.514;14.614;2023-08-31T04:04:41;1.13;;;1.03;;
15878;SDS011;61999;51.514;14.614;2023-08-31T04:07:09;2.10;;;1.90;;
15878;SDS011;61999;51.514;14.614;2023-08-31T04:09:37;1.90;;;1.80;;
15878;SDS011;61999;51.514;14.614;2023-08-31T04:12:05;1.70;;;1.57;;
15878;SDS011;61999;51.514;14.614;2023-08-31T04:14:35;3.13;;;1.73;;
15878;SDS011;61999;51.514;14.614;2023-08-31T04:17:03;2.87;;;2.00;;
15878;SDS011;61999;51.514;14.614;2023-08-31T04:19:31;2.00;;;1.80;;
15878;SDS011;61999;51.514;14.614;2023-08-31T04:21:59;1.77;;;1.60;;
15878;SDS011;61999;51.514;14.614;2023-08-31T04:24:27;2.40;;;1.63;;
15878;SDS011;61999;51.514;14.614;2023-08-31T04:26:55;2.73;;;1.70;;
15878;SDS011;61999;51.514;14.614;2023-08-31T04:29:23;2.53;;;1.87;;
15878;SDS011;61999;51.514;14.614;2023-08-31T04:31:53;1.80;;;1.70;;
15878;SDS011;61999;51.514;14.614;2023-08-31T04:34:21;1.50;;;1.40;;
15878;SDS011;61999;51.514;14.614;2023-08-31T04:36:49;2.00;;;1.80;;
15878;SDS011;61999;51.514;14.614;2023-08-31T04:39:19;2.40;;;1.87;;
15878;SDS011;61999;51.514;14.614;2023-08-31T04:41:47;2.43;;;1.80;;
15878;SDS011;61999;51.514;14.614;2023-08-31T04:44:15;2.50;;;1.80;;
15878;SDS011;61999;51.514;14.614;2023-08-31T04:46:43;2.23;;;1.70;;
15878;SDS011;61999;51.514;14.614;2023-08-31T04:49:12;2.33;;;1.67;;
15878;SDS011;61999;51.514;14.614;2023-08-31T04:51:40;1.73;;;1.60;;
15878;SDS011;61999;51.514;14.614;2023-08-31T04:54:11;3.50;;;1.60;;
15878;SDS011;61999;51.514;14.614;2023-08-31T04:56:40;3.03;;;1.60;;
15878;SDS011;61999;51.514;14.614;2023-08-31T04:59:08;1.50;;;1.40;;
15878;SDS011;61999;51.514;14.614;2023-08-31T05:01:36;3.23;;;1.93;;
15878;SDS011;61999;51.514;14.614;2023-08-31T05:04:04;1.90;;;1.70;;
15878;SDS011;61999;51.514;14.614;2023-08-31T05:06:34;2.60;;;2.17;;
15878;SDS011;61999;51.514;14.614;2023-08-31T05:09:02;2.40;;;1.87;;
15878;SDS011;61999;51.514;14.614;2023-08-31T05:11:32;1.70;;;1.60;;
15878;SDS011;61999;51.514;14.614;2023-08-31T05:14:00;3.27;;;1.20;;
15878;SDS011;61999;51.514;14.614;2023-08-31T05:16:28;1.70;;;1.60;;
15878;SDS011;61999;51.514;14.614;2023-08-31T05:18:56;1.53;;;1.40;;
15878;SDS011;61999;51.514;14.614;2023-08-31T05:21:24;2.80;;;1.30;;
15878;SDS011;61999;51.514;14.614;2023-08-31T05:23:53;1.77;;;1.37;;
15878;SDS011;61999;51.514;14.614;2023-08-31T05:26:22;1.90;;;1.43;;
15878;SDS011;61999;51.514;14.614;2023-08-31T05:28:50;2.70;;;1.57;;
15878;SDS011;61999;51.514;14.614;2023-08-31T05:31:18;1.50;;;1.40;;
15878;SDS011;61999;51.514;14.614;2023-08-31T05:33:46;2.10;;;1.70;;
15878;SDS011;61999;51.514;14.614;2023-08-31T05:36:14;1.97;;;1.87;;
15878;SDS011;61999;51.514;14.614;2023-08-31T05:38:42;1.47;;;1.27;;
15878;SDS011;61999;51.514;14.614;2023-08-31T05:41:12;1.97;;;1.50;;
15878;SDS011;61999;51.514;14.614;2023-08-31T05:43:40;2.10;;;1.33;;
15878;SDS011;61999;51.514;14.614;2023-08-31T05:46:08;1.50;;;1.40;;
15878;SDS011;61999;51.514;14.614;2023-08-31T05:48:36;1.90;;;1.47;;
15878;SDS011;61999;51.514;14.614;2023-08-31T05:51:04;1.63;;;1.53;;
15878;SDS011;61999;51.514;14.614;2023-08-31T05:53:33;1.20;;;1.10;;
15878;SDS011;61999;51.514;14.614;2023-08-31T05:56:01;1.33;;;1.17;;
15878;SDS011;61999;51.514;14.614;2023-08-31T05:58:35;2.23;;;1.30;;
15878;SDS011;61999;51.514;14.614;2023-08-31T06:01:04;1.40;;;1.30;;
15878;SDS011;61999;51.514;14.614;2023-08-31T06:03:33;1.47;;;1.10;;
15878;SDS011;61999;51.514;14.614;2023-08-31T06:06:01;2.30;;;1.30;;
15878;SDS011;61999;51.514;14.614;2023-08-31T06:08:29;1.83;;;1.20;;
15878;SDS011;61999;51.514;14.614;2023-08-31T06:10:57;1.20;;;1.10;;
15878;SDS011;61999;51.514;14.614;2023-08-31T06:13:25;1.57;;;1.13;;
15878;SDS011;61999;51.514;14.614;2023-08-31T06:15:55;2.00;;;1.43;;
15878;SDS011;61999;51.514;14.614;2023-08-31T06:18:24;2.60;;;1.60;;
15878;SDS011;61999;51.514;14.614;2023-08-31T06:20:52;1.80;;;1.27;;
15878;SDS011;61999;51.514;14.614;2023-08-31T06:23:20;1.17;;;1.07;;
15878;SDS011;61999;51.514;14.614;2023-08-31T06:25:48;1.83;;;1.53;;
15878;SDS011;61999;51.514;14.614;2023-08-31T06:28:16;1.67;;;1.40;;
15878;SDS011;61999;51.514;14.614;2023-08-31T06:30:44;2.27;;;1.60;;
15878;SDS011;61999;51.514;14.614;2023-08-31T06:33:14;1.53;;;1.43;;
15878;SDS011;61999;51.514;14.614;2023-08-31T06:35:45;1.63;;;1.50;;
15878;SDS011;61999;51.514;14.614;2023-08-31T06:38:14;1.63;;;1.53;;
15878;SDS011;61999;51.514;14.614;2023-08-31T06:40:42;2.57;;;1.70;;
15878;SDS011;61999;51.514;14.614;2023-08-31T06:43:10;1.70;;;1.60;;
15878;SDS011;61999;51.514;14.614;2023-08-31T06:45:39;1.80;;;1.63;;
15878;SDS011;61999;51.514;14.614;2023-08-31T06:48:07;2.00;;;1.70;;
15878;SDS011;61999;51.514;14.614;2023-08-31T06:50:37;1.90;;;1.70;;
15878;SDS011;61999;51.514;14.614;2023-08-31T06:53:05;2.13;;;1.57;;
15878;SDS011;61999;51.514;14.614;2023-08-31T06:55:33;3.50;;;1.93;;
15878;SDS011;61999;51.514;14.614;2023-08-31T06:58:01;3.17;;;1.60;;
15878;SDS011;61999;51.514;14.614;2023-08-31T07:00:30;2.23;;;1.67;;
15878;SDS011;61999;51.514;14.614;2023-08-31T07:02:59;1.50;;;1.40;;
15878;SDS011;61999;51.514;14.614;2023-08-31T07:05:27;3.17;;;1.90;;
15878;SDS011;61999;51.514;14.614;2023-08-31T07:07:57;2.57;;;1.90;;
15878;SDS011;61999;51.514;14.614;2023-08-31T07:10:25;2.70;;;2.03;;
15878;SDS011;61999;51.514;14.614;2023-08-31T07:12:53;3.13;;;2.10;;
15878;SDS011;61999;51.514;14.614;2023-08-31T07:15:22;2.53;;;2.10;;
15878;SDS011;61999;51.514;14.614;2023-08-31T07:17:50;2.70;;;2.20;;
15878;SDS011;61999;51.514;14.614;2023-08-31T07:20:18;3.27;;;2.40;;
15878;SDS011;61999;51.514;14.614;2023-08-31T07:22:46;3.07;;;2.37;;
15878;SDS011;61999;51.514;14.614;2023-08-31T07:25:15;2.90;;;2.30;;
15878;SDS011;61999;51.514;14.614;2023-08-31T07:27:43;4.03;;;2.33;;
15878;SDS011;61999;51.514;14.614;2023-08-31T07:30:12;2.47;;;2.27;;
15878;SDS011;61999;51.514;14.614;2023-08-31T07:32:40;3.70;;;2.60;;
15878;SDS011;61999;51.514;14.614;2023-08-31T07:35:08;3.63;;;2.70;;
15878;SDS011;61999;51.514;14.614;2023-08-31T07:37:37;2.73;;;2.53;;
15878;SDS011;61999;51.514;14.614;2023-08-31T07:40:05;3.13;;;2.80;;
15878;SDS011;61999;51.514;14.614;2023-08-31T07:42:37;3.10;;;2.90;;
15878;SDS011;61999;51.514;14.614;2023-08-31T07:45:06;3.10;;;2.80;;
15878;SDS011;61999;51.514;14.614;2023-08-31T07:47:35;2.90;;;2.53;;
15878;SDS011;61999;51.514;14.614;2023-08-31T07:50:03;3.77;;;2.60;;
15878;SDS011;61999;51.514;14.614;2023-08-31T07:52:36;3.20;;;2.90;;
15878;SDS011;61999;51.514;14.614;2023-08-31T07:55:05;3.00;;;2.80;;
15878;SDS011;61999;51.514;14.614;2023-08-31T07:57:34;2.93;;;2.73;;
15878;SDS011;61999;51.514;14.614;2023-08-31T08:00:05;2.70;;;2.50;;
15878;SDS011;61999;51.514;14.614;2023-08-31T08:02:34;2.87;;;2.67;;
15878;SDS011;61999;51.514;14.614;2023-08-31T08:05:02;5.53;;;2.97;;
15878;SDS011;61999;51.514;14.614;2023-08-31T08:07:31;3.10;;;2.80;;
15878;SDS011;61999;51.514;14.614;2023-08-31T08:09:59;5.70;;;3.73;;
15878;SDS011;61999;51.514;14.614;2023-08-31T08:12:27;3.23;;;2.93;;
15878;SDS011;61999;51.514;14.614;2023-08-31T08:15:07;2.90;;;2.50;;
15878;SDS011;61999;51.514;14.614;2023-08-31T08:17:35;2.80;;;2.13;;
15878;SDS011;61999;51.514;14.614;2023-08-31T08:20:04;2.93;;;2.50;;
15878;SDS011;61999;51.514;14.614;2023-08-31T08:22:35;2.33;;;2.13;;
15878;SDS011;61999;51.514;14.614;2023-08-31T08:25:03;2.83;;;2.33;;
15878;SDS011;61999;51.514;14.614;2023-08-31T08:27:33;3.03;;;2.80;;
15878;SDS011;61999;51.514;14.614;2023-08-31T08:30:03;3.60;;;2.20;;
15878;SDS011;61999;51.514;14.614;2023-08-31T08:32:34;3.20;;;2.30;;
15878;SDS011;61999;51.514;14.614;2023-08-31T08:35:02;2.43;;;2.23;;
15878;SDS011;61999;51.514;14.614;2023-08-31T08:37:32;4.13;;;2.83;;
15878;SDS011;61999;51.514;14.614;2023-08-31T08:40:00;3.23;;;2.77;;
15878;SDS011;61999;51.514;14.614;2023-08-31T08:42:30;4.60;;;2.50;;
15878;SDS011;61999;51.514;14.614;2023-08-31T08:45:03;2.63;;;2.27;;
15878;SDS011;61999;51.514;14.614;2023-08-31T08:47:36;2.23;;;2.03;;
15878;SDS011;61999;51.514;14.614;2023-08-31T08:50:08;4.90;;;2.50;;
15878;SDS011;61999;51.514;14.614;2023-08-31T08:52:37;2.67;;;2.33;;
15878;SDS011;61999;51.514;14.614;2023-08-31T08:55:06;2.80;;;2.40;;
15878;SDS011;61999;51.514;14.614;2023-08-31T08:57:36;2.40;;;2.20;;
15878;SDS011;61999;51.514;14.614;2023-08-31T09:00:06;3.10;;;2.30;;
15878;SDS011;61999;51.514;14.614;2023-08-31T09:02:38;3.03;;;2.43;;
15878;SDS011;61999;51.514;14.614;2023-08-31T09:05:06;2.57;;;1.90;;
15878;SDS011;61999;51.514;14.614;2023-08-31T09:07:36;2.10;;;1.90;;
15878;SDS011;61999;51.514;14.614;2023-08-31T09:10:32;1.93;;;1.77;;
15878;SDS011;61999;51.514;14.614;2023-08-31T09:13:04;3.77;;;2.10;;
15878;SDS011;61999;51.514;14.614;2023-08-31T09:15:42;2.03;;;1.90;;
15878;SDS011;61999;51.514;14.614;2023-08-31T09:18:17;3.90;;;2.27;;
15878;SDS011;61999;51.514;14.614;2023-08-31T09:20:52;3.33;;;1.90;;
15878;SDS011;61999;51.514;14.614;2023-08-31T09:23:23;1.80;;;1.70;;
15878;SDS011;61999;51.514;14.614;2023-08-31T09:25:52;2.33;;;1.83;;
15878;SDS011;61999;51.514;14.614;2023-08-31T09:28:22;2.60;;;1.60;;
15878;SDS011;61999;51.514;14.614;2023-08-31T09:30:53;2.10;;;1.70;;
15878;SDS011;61999;51.514;14.614;2023-08-31T09:33:34;2.20;;;1.40;;
15878;SDS011;61999;51.514;14.614;2023-08-31T09:36:05;2.70;;;1.87;;
15878;SDS011;61999;51.514;14.614;2023-08-31T09:38:41;3.07;;;1.73;;
15878;SDS011;61999;51.514;14.614;2023-08-31T09:41:10;3.17;;;1.60;;
15878;SDS011;61999;51.514;14.614;2023-08-31T09:43:39;2.43;;;1.70;;
15878;SDS011;61999;51.514;14.614;2023-08-31T09:46:07;2.10;;;1.83;;
15878;SDS011;61999;51.514;14.614;2023-08-31T09:48:38;2.00;;;1.67;;
15878;SDS011;61999;51.514;14.614;2023-08-31T09:51:09;4.13;;;2.07;;
15878;SDS011;61999;51.514;14.614;2023-08-31T09:53:38;2.47;;;1.70;;
15878;SDS011;61999;51.514;14.614;2023-08-31T09:56:10;1.50;;;1.37;;
15878;SDS011;61999;51.514;14.614;2023-08-31T09:58:47;2.10;;;1.73;;
15878;SDS011;61999;51.514;14.614;2023-08-31T10:01:26;2.00;;;1.70;;
15878;SDS011;61999;51.514;14.614;2023-08-31T10:04:03;1.80;;;1.70;;
15878;SDS011;61999;51.514;14.614;2023-08-31T10:06:39;1.77;;;1.67;;
15878;SDS011;61999;51.514;14.614;2023-08-31T10:09:13;1.60;;;1.50;;
15878;SDS011;61999;51.514;14.614;2023-08-31T10:11:44;1.90;;;1.43;;
15878;SDS011;61999;51.514;14.614;2023-08-31T10:14:14;2.03;;;1.80;;
15878;SDS011;61999;51.514;14.614;2023-08-31T10:16:47;1.40;;;1.30;;
15878;SDS011;61999;51.514;14.614;2023-08-31T10:19:20;1.97;;;1.73;;
15878;SDS011;61999;51.514;14.614;2023-08-31T10:21:48;2.20;;;1.67;;
15878;SDS011;61999;51.514;14.614;2023-08-31T10:24:17;2.10;;;1.50;;
15878;SDS011;61999;51.514;14.614;2023-08-31T10:26:45;1.47;;;1.33;;
15878;SDS011;61999;51.514;14.614;2023-08-31T10:29:25;1.67;;;1.30;;
15878;SDS011;61999;51.514;14.614;2023-08-31T10:31:58;2.13;;;1.23;;
15878;SDS011;61999;51.514;14.614;2023-08-31T10:34:37;2.47;;;1.80;;
15878;SDS011;61999;51.514;14.614;2023-08-31T10:37:19;3.13;;;1.47;;
15878;SDS011;61999;51.514;14.614;2023-08-31T10:39:49;2.13;;;1.50;;
15878;SDS011;61999;51.514;14.614;2023-08-31T10:42:41;4.30;;;2.00;;
15878;SDS011;61999;51.514;14.614;2023-08-31T10:45:10;1.60;;;1.50;;
15878;SDS011;61999;51.514;14.614;2023-08-31T10:47:40;1.73;;;1.23;;
15878;SDS011;61999;51.514;14.614;2023-08-31T10:50:18;2.43;;;1.57;;
15878;SDS011;61999;51.514;14.614;2023-08-31T10:52:52;2.73;;;1.10;;
15878;SDS011;61999;51.514;14.614;2023-08-31T10:55:23;2.97;;;1.50;;
15878;SDS011;61999;51.514;14.614;2023-08-31T10:57:52;2.50;;;1.10;;
15878;SDS011;61999;51.514;14.614;2023-08-31T11:00:45;1.87;;;1.23;;
15878;SDS011;61999;51.514;14.614;2023-08-31T11:03:18;1.90;;;1.47;;
15878;SDS011;61999;51.514;14.614;2023-08-31T11:05:52;1.40;;;1.30;;
15878;SDS011;61999;51.514;14.614;2023-08-31T11:08:21;2.10;;;1.63;;
15878;SDS011;61999;51.514;14.614;2023-08-31T11:10:51;1.83;;;1.73;;
15878;SDS011;61999;51.514;14.614;2023-08-31T11:13:19;1.50;;;1.30;;
15878;SDS011;61999;51.514;14.614;2023-08-31T11:15:48;1.90;;;1.70;;
15878;SDS011;61999;51.514;14.614;2023-08-31T11:18:19;1.87;;;1.57;;
15878;SDS011;61999;51.514;14.614;2023-08-31T11:20:48;1.97;;;1.30;;
15878;SDS011;61999;51.514;14.614;2023-08-31T11:23:19;1.83;;;1.30;;
15878;SDS011;61999;51.514;14.614;2023-08-31T11:25:47;2.40;;;1.30;;
15878;SDS011;61999;51.514;14.614;2023-08-31T11:28:15;2.20;;;1.20;;
15878;SDS011;61999;51.514;14.614;2023-08-31T11:30:43;4.53;;;1.60;;
15878;SDS011;61999;51.514;14.614;2023-08-31T11:33:13;2.83;;;2.00;;
15878;SDS011;61999;51.514;14.614;2023-08-31T11:35:41;4.40;;;2.00;;
15878;SDS011;61999;51.514;14.614;2023-08-31T11:38:13;4.67;;;2.50;;
15878;SDS011;61999;51.514;14.614;2023-08-31T11:40:41;2.53;;;2.10;;
15878;SDS011;61999;51.514;14.614;2023-08-31T11:43:10;3.27;;;1.87;;
15878;SDS011;61999;51.514;14.614;2023-08-31T11:45:44;4.93;;;1.90;;
15878;SDS011;61999;51.514;14.614;2023-08-31T11:48:14;2.17;;;1.80;;
15878;SDS011;61999;51.514;14.614;2023-08-31T11:50:42;2.33;;;1.70;;
15878;SDS011;61999;51.514;14.614;2023-08-31T11:53:11;2.20;;;1.93;;
15878;SDS011;61999;51.514;14.614;2023-08-31T11:55:49;3.60;;;1.90;;
15878;SDS011;61999;51.514;14.614;2023-08-31T11:58:19;2.70;;;1.80;;
15878;SDS011;61999;51.514;14.614;2023-08-31T12:00:54;3.80;;;2.03;;
15878;SDS011;61999;51.514;14.614;2023-08-31T12:03:23;3.27;;;2.50;;
15878;SDS011;61999;51.514;14.614;2023-08-31T12:05:58;2.10;;;2.00;;
15878;SDS011;61999;51.514;14.614;2023-08-31T12:08:28;2.73;;;2.30;;
15878;SDS011;61999;51.514;14.614;2023-08-31T12:10:56;2.73;;;2.20;;
15878;SDS011;61999;51.514;14.614;2023-08-31T12:13:28;3.33;;;2.00;;
15878;SDS011;61999;51.514;14.614;2023-08-31T12:15:57;1.97;;;1.87;;
15878;SDS011;61999;51.514;14.614;2023-08-31T12:18:29;2.77;;;1.93;;
15878;SDS011;61999;51.514;14.614;2023-08-31T12:20:58;2.33;;;2.07;;
15878;SDS011;61999;51.514;14.614;2023-08-31T12:23:27;2.27;;;1.90;;
15878;SDS011;61999;51.514;14.614;2023-08-31T12:25:56;1.57;;;1.47;;
15878;SDS011;61999;51.514;14.614;2023-08-31T12:28:25;1.50;;;1.40;;
15878;SDS011;61999;51.514;14.614;2023-08-31T12:30:53;2.40;;;1.57;;
15878;SDS011;61999;51.514;14.614;2023-08-31T12:33:23;2.70;;;1.90;;
15878;SDS011;61999;51.514;14.614;2023-08-31T12:35:52;3.53;;;1.93;;
15878;SDS011;61999;51.514;14.614;2023-08-31T12:38:20;3.37;;;1.77;;
15878;SDS011;61999;51.514;14.614;2023-08-31T12:40:49;3.07;;;2.30;;
15878;SDS011;61999;51.514;14.614;2023-08-31T12:43:17;3.50;;;2.10;;
15878;SDS011;61999;51.514;14.614;2023-08-31T12:45:45;1.93;;;1.80;;
15878;SDS011;61999;51.514;14.614;2023-08-31T12:48:14;3.00;;;1.67;;
15878;SDS011;61999;51.514;14.614;2023-08-31T12:50:42;2.17;;;2.00;;
15878;SDS011;61999;51.514;14.614;2023-08-31T12:53:10;3.23;;;1.60;;
15878;SDS011;61999;51.514;14.614;2023-08-31T12:55:39;1.57;;;1.47;;
15878;SDS011;61999;51.514;14.614;2023-08-31T12:58:08;1.73;;;1.30;;
15878;SDS011;61999;51.514;14.614;2023-08-31T13:00:36;2.70;;;1.20;;
15878;SDS011;61999;51.514;14.614;2023-08-31T13:03:05;3.30;;;1.47;;
15878;SDS011;61999;51.514;14.614;2023-08-31T13:05:34;1.30;;;1.20;;
15878;SDS011;61999;51.514;14.614;2023-08-31T13:08:02;0.93;;;0.93;;
15878;SDS011;61999;51.514;14.614;2023-08-31T13:10:31;1.30;;;1.20;;
15878;SDS011;61999;51.514;14.614;2023-08-31T13:12:59;1.93;;;0.90;;
15878;SDS011;61999;51.514;14.614;2023-08-31T13:15:31;0.83;;;0.63;;
15878;SDS011;61999;51.514;14.614;2023-08-31T13:17:59;2.13;;;0.90;;
15878;SDS011;61999;51.514;14.614;2023-08-31T13:20:27;1.00;;;0.70;;
15878;SDS011;61999;51.514;14.614;2023-08-31T13:22:57;1.57;;;0.93;;
15878;SDS011;61999;51.514;14.614;2023-08-31T13:25:25;0.73;;;0.70;;
15878;SDS011;61999;51.514;14.614;2023-08-31T13:27:54;2.53;;;0.80;;
15878;SDS011;61999;51.514;14.614;2023-08-31T13:30:23;2.97;;;0.97;;
15878;SDS011;61999;51.514;14.614;2023-08-31T13:32:53;0.83;;;0.77;;
15878;SDS011;61999;51.514;14.614;2023-08-31T13:35:21;3.50;;;0.90;;
15878;SDS011;61999;51.514;14.614;2023-08-31T13:37:49;3.17;;;1.17;;
15878;SDS011;61999;51.514;14.614;2023-08-31T13:40:17;1.20;;;0.90;;
15878;SDS011;61999;51.514;14.614;2023-08-31T13:42:52;0.90;;;0.90;;
15878;SDS011;61999;51.514;14.614;2023-08-31T13:45:25;1.70;;;0.70;;
15878;SDS011;61999;51.514;14.614;2023-08-31T13:47:56;1.00;;;0.90;;
15878;SDS011;61999;51.514;14.614;2023-08-31T13:50:26;2.60;;;1.00;;
15878;SDS011;61999;51.514;14.614;2023-08-31T13:52:54;2.00;;;1.23;;
15878;SDS011;61999;51.514;14.614;2023-08-31T13:55:22;2.30;;;1.00;;
15878;SDS011;61999;51.514;14.614;2023-08-31T13:57:51;2.37;;;1.17;;
15878;SDS011;61999;51.514;14.614;2023-08-31T14:00:19;3.57;;;1.00;;
15878;SDS011;61999;51.514;14.614;2023-08-31T14:02:47;2.00;;;0.90;;
15878;SDS011;61999;51.514;14.614;2023-08-31T14:05:17;0.80;;;0.80;;
15878;SDS011;61999;51.514;14.614;2023-08-31T14:07:45;2.53;;;1.00;;
15878;SDS011;61999;51.514;14.614;2023-08-31T14:10:13;2.23;;;1.10;;
15878;SDS011;61999;51.514;14.614;2023-08-31T14:12:41;2.73;;;1.10;;
15878;SDS011;61999;51.514;14.614;2023-08-31T14:15:10;1.37;;;1.00;;
15878;SDS011;61999;51.514;14.614;2023-08-31T14:17:38;3.10;;;1.17;;
15878;SDS011;61999;51.514;14.614;2023-08-31T14:20:07;7.37;;;1.67;;
15878;SDS011;61999;51.514;14.614;2023-08-31T14:22:39;2.47;;;1.10;;
15878;SDS011;61999;51.514;14.614;2023-08-31T14:25:09;2.50;;;1.03;;
15878;SDS011;61999;51.514;14.614;2023-08-31T14:27:38;2.37;;;1.00;;
15878;SDS011;61999;51.514;14.614;2023-08-31T14:30:06;2.70;;;0.93;;
15878;SDS011;61999;51.514;14.614;2023-08-31T14:32:35;3.53;;;1.13;;
15878;SDS011;61999;51.514;14.614;2023-08-31T14:35:03;2.13;;;1.20;;
15878;SDS011;61999;51.514;14.614;2023-08-31T14:37:33;1.80;;;0.90;;
15878;SDS011;61999;51.514;14.614;2023-08-31T14:40:04;2.77;;;1.20;;
15878;SDS011;61999;51.514;14.614;2023-08-31T14:42:33;1.00;;;0.80;;
15878;SDS011;61999;51.514;14.614;2023-08-31T14:45:02;1.20;;;1.10;;
15878;SDS011;61999;51.514;14.614;2023-08-31T14:47:32;1.00;;;0.90;;